createdAt,value
2022-08-04T00:00:52.652Z,0
2022-08-04T00:01:53.318Z,0
2022-08-04T00:02:53.903Z,0
2022-08-04T00:03:55.538Z,0
2022-08-04T00:04:56.239Z,0
2022-08-04T00:05:56.839Z,0
2022-08-04T00:06:57.451Z,0
2022-08-04T00:07:58.049Z,0
2022-08-04T00:08:58.646Z,0
2022-08-04T00:09:59.252Z,0
2022-08-04T00:10:59.839Z,0
2022-08-04T00:12:00.436Z,0
2022-08-04T00:13:01.031Z,0
2022-08-04T00:14:03.493Z,0
2022-08-04T00:15:03.217Z,0
2022-08-04T00:16:03.815Z,0
2022-08-04T00:17:04.413Z,0
2022-08-04T00:18:05.011Z,0
2022-08-04T00:19:05.605Z,0
2022-08-04T00:20:06.201Z,0
2022-08-04T00:21:06.821Z,0
2022-08-04T00:22:07.417Z,0
2022-08-04T00:23:08.015Z,0
2022-08-04T00:24:12.131Z,0
2022-08-04T00:25:10.199Z,0
2022-08-04T00:26:10.794Z,0
2022-08-04T00:27:11.391Z,0
2022-08-04T00:28:11.988Z,0
2022-08-04T00:29:12.585Z,0
2022-08-04T00:30:13.181Z,0
2022-08-04T00:31:13.777Z,0
2022-08-04T00:32:15.381Z,0
2022-08-04T00:33:15.977Z,0
2022-08-04T00:34:16.573Z,0
2022-08-04T00:35:17.172Z,0
2022-08-04T00:36:17.766Z,0
2022-08-04T00:37:18.360Z,0
2022-08-04T00:38:18.962Z,0
2022-08-04T00:39:19.929Z,0
2022-08-04T00:40:20.647Z,0
2022-08-04T00:41:21.243Z,0
2022-08-04T00:42:21.840Z,0
2022-08-04T00:43:22.434Z,0
2022-08-04T00:44:23.693Z,0
2022-08-04T00:45:24.621Z,0
2022-08-04T00:46:25.218Z,0
2022-08-04T00:47:25.813Z,0
2022-08-04T00:48:26.411Z,0
2022-08-04T00:49:27.029Z,0
2022-08-04T00:50:27.626Z,0
2022-08-04T00:51:28.243Z,0
2022-08-04T00:52:31.325Z,0
2022-08-04T00:53:30.426Z,0
2022-08-04T00:54:31.022Z,0
2022-08-04T00:55:31.619Z,0
2022-08-04T00:56:32.233Z,0
2022-08-04T00:57:34.395Z,0
2022-08-04T00:58:34.420Z,0
2022-08-04T00:59:35.014Z,0
2022-08-04T01:00:35.609Z,0
2022-08-04T01:01:36.266Z,0
2022-08-04T01:02:36.877Z,0
2022-08-04T01:03:37.470Z,0
2022-08-04T01:04:38.092Z,0
2022-08-04T01:05:38.687Z,0
2022-08-04T01:06:39.302Z,0
2022-08-04T01:07:39.899Z,0
2022-08-04T01:08:40.498Z,0
2022-08-04T01:09:41.097Z,0
2022-08-04T01:10:41.688Z,0
2022-08-04T01:11:57.570Z,0
2022-08-04T01:12:43.872Z,0
2022-08-04T01:13:44.469Z,0
2022-08-04T01:14:45.064Z,0
2022-08-04T01:15:59.348Z,0
2022-08-04T01:16:46.272Z,0
2022-08-04T01:17:46.869Z,0
2022-08-04T01:18:47.466Z,0
2022-08-04T01:19:48.064Z,0
2022-08-04T01:20:48.660Z,0
2022-08-04T01:21:49.256Z,0
2022-08-04T01:22:49.852Z,0
2022-08-04T01:23:50.450Z,0
2022-08-04T01:24:51.066Z,0
2022-08-04T01:25:52.049Z,0
2022-08-04T01:26:58.195Z,0
2022-08-04T01:27:55.229Z,0
2022-08-04T01:28:56.817Z,0
2022-08-04T01:29:57.415Z,0
2022-08-04T01:30:58.033Z,0
2022-08-04T01:31:58.628Z,0
2022-08-04T01:32:59.224Z,0
2022-08-04T01:34:03.897Z,0
2022-08-04T01:35:01.412Z,0
2022-08-04T01:36:02.075Z,0
2022-08-04T01:37:02.614Z,0
2022-08-04T01:38:18.302Z,0
2022-08-04T01:39:04.833Z,0
2022-08-04T01:40:05.397Z,0
2022-08-04T01:41:05.991Z,0
2022-08-04T01:42:06.589Z,0
2022-08-04T01:43:08.177Z,0
2022-08-04T01:44:08.776Z,0
2022-08-04T01:45:09.374Z,0
2022-08-04T01:46:09.971Z,0
2022-08-04T01:47:10.565Z,0
2022-08-04T01:48:11.160Z,0
2022-08-04T01:49:11.756Z,0
2022-08-04T01:50:12.354Z,0
2022-08-04T01:51:12.975Z,0
2022-08-04T01:52:13.587Z,0
2022-08-04T01:53:14.182Z,0
2022-08-04T01:54:14.779Z,0
2022-08-04T01:55:16.374Z,0
2022-08-04T01:56:16.966Z,0
2022-08-04T01:57:37.539Z,0
2022-08-04T01:58:19.152Z,0
2022-08-04T01:59:19.749Z,0
2022-08-04T02:00:20.350Z,0
2022-08-04T02:01:20.993Z,0
2022-08-04T02:02:21.636Z,0
2022-08-04T02:03:22.219Z,0
2022-08-04T02:04:23.912Z,0
2022-08-04T02:05:24.478Z,0
2022-08-04T02:06:25.075Z,0
2022-08-04T02:07:25.668Z,0
2022-08-04T02:08:27.550Z,0
2022-08-04T02:09:26.879Z,0
2022-08-04T02:10:27.475Z,0
2022-08-04T02:11:28.070Z,0
2022-08-04T02:12:28.667Z,0
2022-08-04T02:13:29.262Z,0
2022-08-04T02:14:29.861Z,0
2022-08-04T02:15:31.088Z,0
2022-08-04T02:16:31.685Z,0
2022-08-04T02:17:32.282Z,0
2022-08-04T02:18:32.878Z,0
2022-08-04T02:19:33.474Z,0
2022-08-04T02:20:34.072Z,0
2022-08-04T02:21:42.127Z,0
2022-08-04T02:22:36.258Z,0
2022-08-04T02:23:36.852Z,0
2022-08-04T02:24:37.451Z,0
2022-08-04T02:25:38.047Z,0
2022-08-04T02:26:38.643Z,0
2022-08-04T02:28:00.135Z,0
2022-08-04T02:28:40.831Z,0
2022-08-04T02:29:41.428Z,0
2022-08-04T02:30:42.023Z,0
2022-08-04T02:31:42.619Z,0
2022-08-04T02:32:43.219Z,0
2022-08-04T02:33:43.812Z,0
2022-08-04T02:34:44.428Z,0
2022-08-04T02:35:45.023Z,0
2022-08-04T02:36:45.618Z,0
2022-08-04T02:37:46.214Z,0
2022-08-04T02:38:46.831Z,0
2022-08-04T02:39:48.719Z,0
2022-08-04T02:40:48.995Z,0
2022-08-04T02:41:49.591Z,0
2022-08-04T02:42:50.187Z,0
2022-08-04T02:43:52.802Z,0
2022-08-04T02:44:52.371Z,0
2022-08-04T02:45:52.966Z,0
2022-08-04T02:46:53.565Z,0
2022-08-04T02:48:29.035Z,0
2022-08-04T02:48:55.751Z,0
2022-08-04T02:49:56.346Z,0
2022-08-04T02:50:57.844Z,0
2022-08-04T02:51:58.440Z,0
2022-08-04T02:52:59.037Z,0
2022-08-04T02:53:59.630Z,0
2022-08-04T02:55:00.229Z,0
2022-08-04T02:56:00.822Z,0
2022-08-04T02:57:01.422Z,0
2022-08-04T02:58:02.015Z,0
2022-08-04T02:59:02.627Z,0
2022-08-04T03:00:03.225Z,0
2022-08-04T03:01:03.862Z,0
2022-08-04T03:02:04.415Z,0
2022-08-04T03:03:05.013Z,0
2022-08-04T03:04:06.601Z,0
2022-08-04T03:05:07.198Z,0
2022-08-04T03:06:10.561Z,0
2022-08-04T03:07:15.593Z,4
2022-08-04T03:08:10.993Z,4
2022-08-04T03:09:11.588Z,0
2022-08-04T03:10:12.185Z,0
2022-08-04T03:11:12.782Z,4
2022-08-04T03:12:13.752Z,4
2022-08-04T03:13:14.369Z,4
2022-08-04T03:14:14.965Z,4
2022-08-04T03:15:15.562Z,8
2022-08-04T03:16:17.151Z,8
2022-08-04T03:17:17.747Z,8
2022-08-04T03:18:18.342Z,8
2022-08-04T03:19:18.940Z,8
2022-08-04T03:20:19.544Z,12
2022-08-04T03:21:20.135Z,12
2022-08-04T03:22:20.735Z,16
2022-08-04T03:23:21.335Z,20
2022-08-04T03:24:21.930Z,20
2022-08-04T03:25:22.533Z,28
2022-08-04T03:26:23.129Z,28
2022-08-04T03:27:23.768Z,32
2022-08-04T03:28:24.421Z,36
2022-08-04T03:29:36.548Z,44
2022-08-04T03:30:26.611Z,48
2022-08-04T03:31:27.209Z,56
2022-08-04T03:32:27.805Z,64
2022-08-04T03:33:28.407Z,76
2022-08-04T03:34:29.024Z,88
2022-08-04T03:35:29.623Z,100
2022-08-04T03:36:31.816Z,112
2022-08-04T03:37:31.815Z,128
2022-08-04T03:38:32.413Z,148
2022-08-04T03:39:33.092Z,164
2022-08-04T03:40:33.708Z,180
2022-08-04T03:41:57.363Z,196
2022-08-04T03:42:34.944Z,212
2022-08-04T03:43:58.000Z,236
2022-08-04T03:44:36.162Z,252
2022-08-04T03:45:36.764Z,276
2022-08-04T03:46:37.361Z,308
2022-08-04T03:47:44.238Z,336
2022-08-04T03:48:39.553Z,360
2022-08-04T03:49:40.151Z,392
2022-08-04T03:50:41.533Z,420
2022-08-04T03:51:41.367Z,448
2022-08-04T03:52:41.964Z,484
2022-08-04T03:53:43.556Z,516
2022-08-04T03:54:44.154Z,556
2022-08-04T03:55:44.755Z,592
2022-08-04T03:56:45.356Z,628
2022-08-04T03:57:45.956Z,676
2022-08-04T03:58:46.555Z,720
2022-08-04T03:59:48.738Z,776
2022-08-04T04:00:47.791Z,828
2022-08-04T04:02:02.399Z,884
2022-08-04T04:02:49.028Z,936
2022-08-04T04:03:49.598Z,992
2022-08-04T04:04:50.197Z,1056
2022-08-04T04:05:58.955Z,1124
2022-08-04T04:06:54.182Z,1200
2022-08-04T04:07:59.617Z,1268
2022-08-04T04:08:55.581Z,1336
2022-08-04T04:10:05.864Z,1404
2022-08-04T04:10:58.766Z,1472
2022-08-04T04:11:59.371Z,1544
2022-08-04T04:12:59.989Z,1612
2022-08-04T04:14:00.590Z,1684
2022-08-04T04:15:01.209Z,1768
2022-08-04T04:16:01.815Z,1856
2022-08-04T04:17:02.409Z,1960
2022-08-04T04:18:03.008Z,2084
2022-08-04T04:19:03.633Z,2216
2022-08-04T04:20:04.230Z,2364
2022-08-04T04:21:04.829Z,2516
2022-08-04T04:22:05.431Z,2668
2022-08-04T04:23:06.032Z,2820
2022-08-04T04:24:07.628Z,2984
2022-08-04T04:25:08.236Z,3152
2022-08-04T04:26:08.835Z,3324
2022-08-04T04:27:09.458Z,3496
2022-08-04T04:28:44.185Z,3648
2022-08-04T04:29:11.653Z,3800
2022-08-04T04:30:12.258Z,3932
2022-08-04T04:31:12.859Z,4040
2022-08-04T04:32:13.460Z,4148
2022-08-04T04:33:14.062Z,4256
2022-08-04T04:34:14.663Z,4364
2022-08-04T04:35:15.264Z,4468
2022-08-04T04:36:15.866Z,4568
2022-08-04T04:37:16.467Z,4668
2022-08-04T04:38:17.069Z,4784
2022-08-04T04:39:17.708Z,4908
2022-08-04T04:40:18.296Z,5024
2022-08-04T04:41:18.898Z,5132
2022-08-04T04:42:19.502Z,5248
2022-08-04T04:43:20.103Z,5388
2022-08-04T04:44:20.706Z,5520
2022-08-04T04:45:21.308Z,5660
2022-08-04T04:46:21.909Z,5816
2022-08-04T04:48:07.361Z,5996
2022-08-04T04:48:24.107Z,6184
2022-08-04T04:49:24.709Z,6376
2022-08-04T04:50:33.634Z,6584
2022-08-04T04:51:26.909Z,6816
2022-08-04T04:52:27.510Z,7056
2022-08-04T04:53:28.115Z,7304
2022-08-04T04:54:28.715Z,7604
2022-08-04T04:55:29.321Z,7864
2022-08-04T04:56:29.922Z,8156
2022-08-04T04:57:53.490Z,8456
2022-08-04T04:58:32.121Z,8808
2022-08-04T04:59:32.721Z,9096
2022-08-04T05:00:33.325Z,9304
2022-08-04T05:01:33.926Z,9376
2022-08-04T05:02:34.528Z,9368
2022-08-04T05:03:35.130Z,9388
2022-08-04T05:04:35.733Z,9380
2022-08-04T05:05:36.333Z,9348
2022-08-04T05:06:36.955Z,9352
2022-08-04T05:07:37.575Z,9392
2022-08-04T05:08:43.820Z,9456
2022-08-04T05:09:38.794Z,9532
2022-08-04T05:10:39.395Z,9628
2022-08-04T05:11:39.995Z,9776
2022-08-04T05:14:22.823Z,9852
2022-08-04T05:14:38.678Z,9904
2022-08-04T05:14:43.803Z,9976
2022-08-04T05:15:44.420Z,10100
2022-08-04T05:16:45.010Z,10260
2022-08-04T05:17:45.610Z,10452
2022-08-04T05:18:46.217Z,10648
2022-08-04T05:19:46.818Z,10776
2022-08-04T05:20:47.422Z,10948
2022-08-04T05:21:48.029Z,11100
2022-08-04T05:22:48.629Z,11208
2022-08-04T05:23:49.232Z,11224
2022-08-04T05:24:49.834Z,11044
2022-08-04T05:25:59.568Z,10812
2022-08-04T05:26:52.029Z,10528
2022-08-04T05:27:52.631Z,10264
2022-08-04T05:28:53.237Z,10036
2022-08-04T05:29:53.840Z,9812
2022-08-04T05:30:54.438Z,9620
2022-08-04T05:31:55.040Z,9528
2022-08-04T05:32:59.112Z,9544
2022-08-04T05:33:56.255Z,9504
2022-08-04T05:34:56.859Z,9552
2022-08-04T05:36:20.766Z,9676
2022-08-04T05:36:59.053Z,9800
2022-08-04T05:38:01.241Z,9940
2022-08-04T05:39:01.330Z,10148
2022-08-04T05:40:01.885Z,10416
2022-08-04T05:41:02.487Z,10732
2022-08-04T05:42:04.549Z,10968
2022-08-04T05:43:04.687Z,11212
2022-08-04T05:44:05.287Z,11644
2022-08-04T05:45:05.890Z,11828
2022-08-04T05:46:06.492Z,12072
2022-08-04T05:47:07.092Z,12132
2022-08-04T05:48:07.695Z,12368
2022-08-04T05:49:08.296Z,12592
2022-08-04T05:50:08.901Z,12864
2022-08-04T05:51:09.522Z,13248
2022-08-04T05:52:10.124Z,13736
2022-08-04T05:53:10.725Z,14244
2022-08-04T05:54:11.327Z,14632
2022-08-04T05:55:11.931Z,14936
2022-08-04T05:56:12.535Z,14884
2022-08-04T05:57:13.203Z,14644
2022-08-04T05:58:13.762Z,14608
2022-08-04T05:59:14.365Z,14220
2022-08-04T06:00:39.069Z,13564
2022-08-04T06:01:15.629Z,13008
2022-08-04T06:02:16.223Z,12292
2022-08-04T06:03:16.795Z,11744
2022-08-04T06:04:17.396Z,11264
2022-08-04T06:05:17.998Z,10940
2022-08-04T06:06:18.600Z,10536
2022-08-04T06:07:19.313Z,10584
2022-08-04T06:08:19.945Z,10464
2022-08-04T06:09:20.543Z,9928
2022-08-04T06:10:25.389Z,9756
2022-08-04T06:11:22.739Z,9392
2022-08-04T06:12:23.344Z,8812
2022-08-04T06:13:48.017Z,9192
2022-08-04T06:14:25.540Z,9772
2022-08-04T06:15:26.141Z,10648
2022-08-04T06:16:28.737Z,11316
2022-08-04T06:18:33.594Z,13408
2022-08-04T06:19:10.059Z,12284
2022-08-04T06:20:02.192Z,14788
2022-08-04T06:20:34.707Z,16252
2022-08-04T06:21:34.735Z,19232
2022-08-04T06:22:35.344Z,19936
2022-08-04T06:23:35.963Z,20672
2022-08-04T06:24:37.560Z,22336
2022-08-04T06:25:38.163Z,22560
2022-08-04T06:26:38.767Z,22528
2022-08-04T06:27:39.368Z,22144
2022-08-04T06:28:39.973Z,21056
2022-08-04T06:29:40.573Z,22496
2022-08-04T06:30:41.194Z,23744
2022-08-04T06:32:28.537Z,23904
2022-08-04T06:32:43.414Z,24160
2022-08-04T06:33:54.630Z,24576
2022-08-04T06:34:45.637Z,25120
2022-08-04T06:35:46.244Z,25472
2022-08-04T06:36:46.842Z,25312
2022-08-04T06:37:47.772Z,26336
2022-08-04T06:38:58.708Z,26912
2022-08-04T06:39:50.112Z,26720
2022-08-04T06:40:51.709Z,29312
2022-08-04T06:42:02.515Z,29088
2022-08-04T06:42:53.908Z,27136
2022-08-04T06:43:54.511Z,27680
2022-08-04T06:44:55.132Z,29728
2022-08-04T06:45:55.737Z,27872
2022-08-04T06:46:56.363Z,26144
2022-08-04T06:47:56.985Z,26720
2022-08-04T06:48:57.589Z,25920
2022-08-04T06:51:25.335Z,22880
2022-08-04T06:51:25.896Z,23904
2022-08-04T06:52:00.436Z,21248
2022-08-04T06:53:01.039Z,21984
2022-08-04T06:54:01.642Z,21152
2022-08-04T06:55:02.267Z,17568
2022-08-04T06:56:02.874Z,18240
2022-08-04T06:57:03.484Z,15844
2022-08-04T06:58:04.091Z,14992
2022-08-04T06:59:04.699Z,14848
2022-08-04T07:00:05.300Z,14684
2022-08-04T07:01:05.903Z,15836
2022-08-04T07:02:06.546Z,16964
2022-08-04T07:03:07.124Z,18976
2022-08-04T07:04:07.711Z,21824
2022-08-04T07:05:08.317Z,24000
2022-08-04T07:06:14.334Z,22368
2022-08-04T07:07:10.531Z,24864
2022-08-04T07:08:11.135Z,25824
2022-08-04T07:09:11.759Z,30240
2022-08-04T07:10:12.386Z,30848
2022-08-04T07:11:13.978Z,23232
2022-08-04T07:12:14.580Z,21696
2022-08-04T07:13:15.185Z,21088
2022-08-04T07:14:15.806Z,31008
2022-08-04T07:15:16.411Z,32256
2022-08-04T07:16:17.011Z,22400
2022-08-04T07:17:17.615Z,32896
2022-08-04T07:18:18.215Z,24192
2022-08-04T07:19:19.257Z,30848
2022-08-04T07:20:34.672Z,24064
2022-08-04T07:21:20.459Z,32096
2022-08-04T07:22:25.565Z,43200
2022-08-04T07:23:22.659Z,41248
2022-08-04T07:24:23.262Z,29664
2022-08-04T07:25:23.867Z,33440
2022-08-04T07:26:25.461Z,26784
2022-08-04T07:27:26.068Z,28320
2022-08-04T07:28:27.665Z,32192
2022-08-04T07:29:28.269Z,31680
2022-08-04T07:30:28.875Z,33024
2022-08-04T07:31:34.543Z,24832
2022-08-04T07:32:31.093Z,41408
2022-08-04T07:33:31.902Z,34592
2022-08-04T07:34:32.509Z,30496
2022-08-04T07:36:05.175Z,29664
2022-08-04T07:36:41.995Z,42240
2022-08-04T07:37:39.328Z,34208
2022-08-04T07:38:46.625Z,45312
2022-08-04T07:39:48.352Z,44544
2022-08-04T07:40:41.112Z,44928
2022-08-04T07:41:44.145Z,52960
2022-08-04T07:42:42.337Z,45216
2022-08-04T07:43:42.942Z,52864
2022-08-04T07:44:43.547Z,45248
2022-08-04T07:45:45.145Z,29728
2022-08-04T07:46:46.742Z,43936
2022-08-04T07:48:04.738Z,29216
2022-08-04T07:48:48.941Z,59840
2022-08-04T07:49:55.134Z,54752
2022-08-04T07:50:51.163Z,45056
2022-08-04T07:51:51.784Z,46432
2022-08-04T07:53:15.309Z,36736
2022-08-04T07:53:56.380Z,20864
2022-08-04T07:54:55.579Z,24736
2022-08-04T07:55:56.183Z,29600
2022-08-04T07:56:56.787Z,33920
2022-08-04T07:57:57.392Z,40480
2022-08-04T07:58:57.995Z,36800
2022-08-04T07:59:58.616Z,38464
2022-08-04T08:00:59.217Z,24000
2022-08-04T08:01:59.819Z,24064
2022-08-04T08:03:00.505Z,28640
2022-08-04T08:04:01.181Z,40480
2022-08-04T08:05:01.768Z,26496
2022-08-04T08:06:21.066Z,30112
2022-08-04T08:07:04.017Z,23840
2022-08-04T08:08:04.622Z,21792
2022-08-04T08:09:13.833Z,21440
2022-08-04T08:10:06.817Z,35904
2022-08-04T08:11:07.418Z,51168
2022-08-04T08:12:35.577Z,54752
2022-08-04T08:13:09.650Z,57952
2022-08-04T08:14:10.242Z,64128
2022-08-04T08:15:10.864Z,49376
2022-08-04T08:16:12.527Z,63040
2022-08-04T08:17:13.085Z,62624
2022-08-04T08:18:13.690Z,58048
2022-08-04T08:19:14.292Z,47776
2022-08-04T08:20:14.915Z,42720
2022-08-04T08:21:16.512Z,28416
2022-08-04T08:22:17.117Z,39136
2022-08-04T08:23:17.719Z,48576
2022-08-04T08:24:19.319Z,59232
2022-08-04T08:25:19.919Z,67808
2022-08-04T08:26:21.388Z,69760
2022-08-04T08:27:22.241Z,64032
2022-08-04T08:28:22.943Z,56544
2022-08-04T08:29:23.544Z,52576
2022-08-04T08:30:24.168Z,54816
2022-08-04T08:31:56.453Z,58016
2022-08-04T08:32:26.370Z,60768
2022-08-04T08:33:26.973Z,64608
2022-08-04T08:34:28.653Z,67904
2022-08-04T08:35:29.191Z,71488
2022-08-04T08:36:29.795Z,78912
2022-08-04T08:37:30.402Z,85248
2022-08-04T08:38:31.042Z,89760
2022-08-04T08:39:31.779Z,90400
2022-08-04T08:40:40.930Z,85120
2022-08-04T08:41:34.034Z,75744
2022-08-04T08:42:34.636Z,67328
2022-08-04T08:44:05.905Z,64128
2022-08-04T08:44:37.743Z,65184
2022-08-04T08:45:38.433Z,67360
2022-08-04T08:46:49.321Z,71808
2022-08-04T08:48:04.710Z,74432
2022-08-04T08:48:42.130Z,71808
2022-08-04T08:50:00.415Z,67872
2022-08-04T08:50:44.329Z,68608
2022-08-04T08:51:47.593Z,71872
2022-08-04T08:52:55.363Z,71712
2022-08-04T08:53:48.126Z,62816
2022-08-04T08:54:48.731Z,52544
2022-08-04T08:55:49.331Z,44960
2022-08-04T08:56:49.939Z,44128
2022-08-04T08:57:59.942Z,51104
2022-08-04T08:58:52.157Z,56352
2022-08-04T08:59:52.756Z,54560
2022-08-04T09:00:53.359Z,59168
2022-08-04T09:01:53.996Z,77024
2022-08-04T09:03:04.646Z,79840
2022-08-04T09:03:56.174Z,74688
2022-08-04T09:04:56.801Z,72000
2022-08-04T09:05:57.422Z,67712
2022-08-04T09:06:58.027Z,65920
2022-08-04T09:07:58.628Z,57696
2022-08-04T09:08:59.252Z,68992
2022-08-04T09:09:59.855Z,68256
2022-08-04T09:11:01.223Z,64832
2022-08-04T09:12:01.825Z,60672
2022-08-04T09:13:02.436Z,59392
2022-08-04T09:14:03.036Z,62656
2022-08-04T09:15:03.643Z,67392
2022-08-04T09:16:04.243Z,71552
2022-08-04T09:17:04.846Z,69120
2022-08-04T09:18:05.447Z,69376
2022-08-04T09:19:06.052Z,71648
2022-08-04T09:20:06.654Z,76672
2022-08-04T09:21:07.259Z,72544
2022-08-04T09:22:12.322Z,69600
2022-08-04T09:23:09.461Z,66784
2022-08-04T09:24:35.275Z,64640
2022-08-04T09:25:11.664Z,66464
2022-08-04T09:26:12.267Z,62560
2022-08-04T09:27:12.872Z,65344
2022-08-04T09:28:13.475Z,62624
2022-08-04T09:29:14.079Z,67808
2022-08-04T09:30:14.706Z,78816
2022-08-04T09:31:15.310Z,78656
2022-08-04T09:32:15.912Z,73856
2022-08-04T09:33:16.516Z,68896
2022-08-04T09:34:17.136Z,62048
2022-08-04T09:35:17.742Z,47744
2022-08-04T09:36:25.954Z,70784
2022-08-04T09:37:20.165Z,87584
2022-08-04T09:38:20.563Z,103200
2022-08-04T09:39:21.247Z,112672
2022-08-04T09:40:28.175Z,93952
2022-08-04T09:41:45.474Z,59936
2022-08-04T09:42:26.151Z,79520
2022-08-04T09:43:26.589Z,93344
2022-08-04T09:44:50.315Z,108992
2022-08-04T09:45:43.252Z,116320
2022-08-04T09:46:29.426Z,103040
2022-08-04T09:47:39.437Z,88416
2022-08-04T09:48:31.627Z,74784
2022-08-04T09:49:32.234Z,65440
2022-08-04T09:50:32.841Z,70432
2022-08-04T09:51:59.089Z,76896
2022-08-04T09:52:35.060Z,79168
2022-08-04T09:53:35.690Z,78240
2022-08-04T09:54:36.310Z,57568
2022-08-04T09:55:36.913Z,67520
2022-08-04T09:56:38.511Z,97792
2022-08-04T09:57:39.116Z,104224
2022-08-04T09:58:39.721Z,93792
2022-08-04T09:59:40.323Z,80064
2022-08-04T10:00:42.086Z,69504
2022-08-04T10:01:42.522Z,71776
2022-08-04T10:02:43.143Z,79360
2022-08-04T10:03:43.750Z,92224
2022-08-04T10:04:44.356Z,105024
2022-08-04T10:05:44.966Z,101856
2022-08-04T10:06:45.566Z,89984
2022-08-04T10:07:59.617Z,76096
2022-08-04T10:08:47.769Z,65344
2022-08-04T10:09:48.373Z,72288
2022-08-04T10:10:48.997Z,86368
2022-08-04T10:11:54.734Z,107168
2022-08-04T10:12:51.200Z,112288
2022-08-04T10:13:51.808Z,92576
2022-08-04T10:14:52.418Z,101152
2022-08-04T10:15:53.054Z,76704
2022-08-04T10:16:53.677Z,86688
2022-08-04T10:17:54.282Z,92544
2022-08-04T10:18:54.884Z,67424
2022-08-04T10:19:55.490Z,117056
2022-08-04T10:21:00.060Z,105760
2022-08-04T10:21:59.453Z,75552
2022-08-04T10:23:11.034Z,103264
2022-08-04T10:24:00.891Z,70304
2022-08-04T10:25:01.491Z,79200
2022-08-04T10:26:07.667Z,95040
2022-08-04T10:27:03.695Z,89888
2022-08-04T10:28:04.298Z,108640
2022-08-04T10:29:04.903Z,139680
2022-08-04T10:30:05.508Z,129280
2022-08-04T10:31:06.116Z,108704
2022-08-04T10:32:06.742Z,85504
2022-08-04T10:33:07.366Z,84864
2022-08-04T10:34:07.968Z,80384
2022-08-04T10:35:08.574Z,73120
2022-08-04T10:36:09.178Z,83168
2022-08-04T10:37:09.798Z,98848
2022-08-04T10:38:10.406Z,103552
2022-08-04T10:39:13.751Z,81920
2022-08-04T10:40:11.677Z,91776
2022-08-04T10:41:12.253Z,88928
2022-08-04T10:42:12.858Z,107072
2022-08-04T10:43:20.771Z,102240
2022-08-04T10:44:15.062Z,141920
2022-08-04T10:45:15.691Z,153184
2022-08-04T10:46:16.294Z,144832
2022-08-04T10:47:16.899Z,121504
2022-08-04T10:48:17.526Z,93472
2022-08-04T10:49:19.125Z,72352
2022-08-04T10:50:20.720Z,70368
2022-08-04T10:51:21.329Z,85568
2022-08-04T10:52:21.951Z,102048
2022-08-04T10:53:22.558Z,112064
2022-08-04T10:54:23.183Z,115232
2022-08-04T10:55:23.792Z,109248
2022-08-04T10:56:25.385Z,98016
2022-08-04T10:57:25.992Z,91680
2022-08-04T10:58:47.510Z,95520
2022-08-04T10:59:28.193Z,103424
2022-08-04T11:00:28.803Z,110592
2022-08-04T11:01:59.600Z,115552
2022-08-04T11:02:30.088Z,110816
2022-08-04T11:03:30.645Z,99296
2022-08-04T11:04:31.269Z,93600
2022-08-04T11:05:31.895Z,98752
2022-08-04T11:06:32.498Z,108640
2022-08-04T11:07:33.104Z,115040
2022-08-04T11:08:33.709Z,118880
2022-08-04T11:09:34.330Z,117344
2022-08-04T11:10:34.932Z,111136
2022-08-04T11:12:00.109Z,103616
2022-08-04T11:12:37.137Z,98208
2022-08-04T11:13:37.737Z,99552
2022-08-04T11:14:38.902Z,110016
2022-08-04T11:15:38.982Z,124608
2022-08-04T11:16:39.586Z,137440
2022-08-04T11:17:40.193Z,145632
2022-08-04T11:18:40.799Z,143712
2022-08-04T11:19:42.839Z,122400
2022-08-04T11:20:42.031Z,99648
2022-08-04T11:21:42.630Z,85472
2022-08-04T11:22:43.233Z,89120
2022-08-04T11:23:43.860Z,104928
2022-08-04T11:24:44.461Z,121504
2022-08-04T11:25:48.465Z,124832
2022-08-04T11:26:45.688Z,113536
2022-08-04T11:27:46.296Z,98432
2022-08-04T11:28:52.501Z,89600
2022-08-04T11:29:48.500Z,88544
2022-08-04T11:30:49.102Z,98784
2022-08-04T11:31:51.824Z,115488
2022-08-04T11:32:51.304Z,123296
2022-08-04T11:33:51.912Z,121344
2022-08-04T11:34:52.862Z,110304
2022-08-04T11:35:53.755Z,93920
2022-08-04T11:36:54.358Z,77472
2022-08-04T11:37:54.963Z,71808
2022-08-04T11:38:55.624Z,86528
2022-08-04T11:39:56.183Z,95680
2022-08-04T11:41:03.169Z,108896
2022-08-04T11:41:58.391Z,119136
2022-08-04T11:42:58.993Z,62336
2022-08-04T11:44:01.720Z,84032
2022-08-04T11:45:01.398Z,100544
2022-08-04T11:46:02.009Z,110688
2022-08-04T11:47:02.613Z,131584
2022-08-04T11:48:03.218Z,147808
2022-08-04T11:49:03.822Z,138496
2022-08-04T11:50:04.428Z,111392
2022-08-04T11:51:06.783Z,84288
2022-08-04T11:52:06.629Z,76128
2022-08-04T11:53:07.234Z,83744
2022-08-04T11:54:07.838Z,92192
2022-08-04T11:55:08.443Z,103296
2022-08-04T11:56:11.071Z,122176
2022-08-04T11:57:09.682Z,133600
2022-08-04T11:58:10.319Z,126464
2022-08-04T11:59:10.943Z,112544
2022-08-04T12:00:11.621Z,114720
2022-08-04T12:01:12.181Z,127488
2022-08-04T12:02:13.624Z,77344
2022-08-04T12:03:14.383Z,66496
2022-08-04T12:04:15.009Z,146400
2022-08-04T12:05:32.402Z,137440
2022-08-04T12:06:16.237Z,149664
2022-08-04T12:07:33.697Z,153056
2022-08-04T12:08:18.438Z,151520
2022-08-04T12:09:19.043Z,133056
2022-08-04T12:10:41.422Z,112384
2022-08-04T12:11:21.250Z,104096
2022-08-04T12:12:21.873Z,109888
2022-08-04T12:13:22.484Z,124704
2022-08-04T12:14:23.087Z,143264
2022-08-04T12:15:23.692Z,154304
2022-08-04T12:16:24.333Z,140640
2022-08-04T12:17:24.921Z,121152
2022-08-04T12:18:26.521Z,113120
2022-08-04T12:19:30.907Z,57152
2022-08-04T12:20:34.359Z,63968
2022-08-04T12:21:30.512Z,75488
2022-08-04T12:22:31.509Z,141984
2022-08-04T12:23:32.685Z,119904
2022-08-04T12:24:33.292Z,132928
2022-08-04T12:25:33.895Z,57824
2022-08-04T12:26:34.504Z,84448
2022-08-04T12:27:35.123Z,51552
2022-08-04T12:28:59.577Z,81632
2022-08-04T12:29:36.349Z,52320
2022-08-04T12:30:57.502Z,49536
2022-08-04T12:31:38.552Z,52576
2022-08-04T12:32:39.156Z,59104
2022-08-04T12:34:05.701Z,52416
2022-08-04T12:34:41.376Z,60352
2022-08-04T12:36:10.495Z,61152
2022-08-04T12:36:43.581Z,119520
2022-08-04T12:37:44.184Z,72768
2022-08-04T12:38:44.789Z,78528
2022-08-04T12:40:28.304Z,110688
2022-08-04T12:40:46.994Z,99648
2022-08-04T12:41:47.618Z,67136
2022-08-04T12:42:55.886Z,129248
2022-08-04T12:43:48.847Z,60064
2022-08-04T12:44:49.450Z,116512
2022-08-04T12:45:50.053Z,97504
2022-08-04T12:46:50.676Z,52416
2022-08-04T12:47:51.288Z,54816
2022-08-04T12:48:51.885Z,76512
2022-08-04T12:50:01.058Z,48608
2022-08-04T12:50:54.095Z,69088
2022-08-04T12:52:08.601Z,145632
2022-08-04T12:53:02.064Z,170880
2022-08-04T12:53:57.892Z,119392
2022-08-04T12:54:58.498Z,133344
2022-08-04T12:56:01.928Z,32992
2022-08-04T12:57:00.702Z,37504
2022-08-04T12:58:01.325Z,97376
2022-08-04T12:59:01.910Z,110656
2022-08-04T13:00:02.533Z,128384
2022-08-04T13:01:03.157Z,144000
2022-08-04T13:02:08.919Z,145440
2022-08-04T13:03:06.321Z,133056
2022-08-04T13:04:07.916Z,111936
2022-08-04T13:05:08.521Z,96256
2022-08-04T13:06:09.124Z,88992
2022-08-04T13:07:09.750Z,89984
2022-08-04T13:08:10.354Z,105312
2022-08-04T13:09:17.558Z,136928
2022-08-04T13:10:12.555Z,167232
2022-08-04T13:11:14.154Z,171680
2022-08-04T13:12:14.757Z,154496
2022-08-04T13:13:15.371Z,126720
2022-08-04T13:14:26.515Z,99072
2022-08-04T13:15:18.509Z,89856
2022-08-04T13:16:18.187Z,108416
2022-08-04T13:17:20.012Z,141824
2022-08-04T13:18:23.194Z,171712
2022-08-04T13:19:22.984Z,38336
2022-08-04T13:20:23.588Z,73664
2022-08-04T13:21:50.123Z,51488
2022-08-04T13:22:26.593Z,63008
2022-08-04T13:23:27.217Z,44928
2022-08-04T13:24:32.418Z,84288
2022-08-04T13:26:44.491Z,198176
2022-08-04T13:26:45.048Z,178592
2022-08-04T13:27:43.142Z,185888
2022-08-04T13:28:34.210Z,156480
2022-08-04T13:30:00.228Z,130080
2022-08-04T13:30:36.413Z,105696
2022-08-04T13:31:37.037Z,65696